createdAt,value
2022-09-24T00:01:38.940Z,21.20
2022-09-24T00:04:09.803Z,21.29
2022-09-24T00:06:48.058Z,21.29
2022-09-24T00:09:19.486Z,21.33
2022-09-24T00:11:46.593Z,21.41
2022-09-24T00:14:14.174Z,21.34
2022-09-24T00:16:43.730Z,20.97
2022-09-24T00:19:14.004Z,20.78
2022-09-24T00:21:42.377Z,20.71
2022-09-24T00:24:37.045Z,20.84
2022-09-24T00:27:06.021Z,21.59
2022-09-24T00:29:34.177Z,21.65
2022-09-24T00:32:03.066Z,21.81
2022-09-24T00:34:30.359Z,21.98
2022-09-24T00:36:57.356Z,20.82
2022-09-24T00:39:24.317Z,21.47
2022-09-24T00:41:51.402Z,21.52
2022-09-24T00:44:55.945Z,21.96
2022-09-24T00:47:37.376Z,21.98
2022-09-24T00:50:17.555Z,20.99
2022-09-24T00:52:54.899Z,20.76
2022-09-24T00:55:24.687Z,20.76
2022-09-24T00:57:57.571Z,20.67
2022-09-24T01:00:25.157Z,20.59
2022-09-24T01:03:00.815Z,20.50
2022-09-24T01:05:28.615Z,20.93
2022-09-24T01:07:55.708Z,20.52
2022-09-24T01:10:48.856Z,20.65
2022-09-24T01:13:43.300Z,20.80
2022-09-24T01:16:29.966Z,20.85
2022-09-24T01:19:23.972Z,20.55
2022-09-24T01:21:57.745Z,20.46
2022-09-24T01:24:43.443Z,20.72
2022-09-24T01:27:39.239Z,20.84
2022-09-24T01:30:12.041Z,20.62
2022-09-24T01:32:54.168Z,20.76
2022-09-24T01:35:34.797Z,20.62
2022-09-24T01:38:13.832Z,20.66
2022-09-24T01:40:42.488Z,20.72
2022-09-24T01:43:11.870Z,20.75
2022-09-24T01:45:39.980Z,20.61
2022-09-24T01:48:07.509Z,20.54
2022-09-24T01:50:52.023Z,20.65
2022-09-24T01:53:30.797Z,20.61
2022-09-24T01:56:09.542Z,20.48
2022-09-24T01:58:53.098Z,20.49
2022-09-24T02:01:48.483Z,20.55
2022-09-24T02:04:19.389Z,20.47
2022-09-24T02:07:13.400Z,20.51
2022-09-24T02:09:43.240Z,20.31
2022-09-24T02:12:29.847Z,20.44
2022-09-24T02:15:12.827Z,20.48
2022-09-24T02:17:44.930Z,20.47
2022-09-24T02:20:21.665Z,20.63
2022-09-24T02:22:50.072Z,20.29
2022-09-24T02:25:23.310Z,20.35
2022-09-24T02:27:50.469Z,20.08
2022-09-24T02:30:17.908Z,20.11
2022-09-24T02:32:45.049Z,20.05
2022-09-24T02:35:12.927Z,20.12
2022-09-24T02:37:43.593Z,20.30
2022-09-24T02:40:14.074Z,20.23
2022-09-24T02:42:42.347Z,20.16
2022-09-24T02:45:11.253Z,20.18
2022-09-24T02:47:38.895Z,20.10
2022-09-24T02:50:06.921Z,20.18
2022-09-24T02:52:34.207Z,20.10
2022-09-24T02:55:01.985Z,20.22
2022-09-24T02:57:29.020Z,20.11
2022-09-24T02:59:55.918Z,20.09
2022-09-24T03:02:23.040Z,20.14
2022-09-24T03:04:50.884Z,20.07
2022-09-24T03:07:18.188Z,20.17
2022-09-24T03:09:45.300Z,20.10
2022-09-24T03:12:12.665Z,19.94
2022-09-24T03:14:39.601Z,19.89
2022-09-24T03:17:06.531Z,19.88
2022-09-24T03:19:33.491Z,19.65
2022-09-24T03:22:00.429Z,20.02
2022-09-24T03:24:27.307Z,20.05
2022-09-24T03:26:54.260Z,19.85
2022-09-24T03:29:41.216Z,19.97
2022-09-24T03:32:08.102Z,19.90
2022-09-24T03:34:34.988Z,19.75
2022-09-24T03:37:02.141Z,19.72
2022-09-24T03:39:29.267Z,19.95
2022-09-24T03:41:56.381Z,19.70
2022-09-24T03:44:23.359Z,19.88
2022-09-24T03:46:50.388Z,19.89
2022-09-24T03:49:17.792Z,19.76
2022-09-24T03:51:44.666Z,19.73
2022-09-24T03:54:12.303Z,19.76
2022-09-24T03:56:39.244Z,19.67
2022-09-24T03:59:06.220Z,19.70
2022-09-24T04:01:35.317Z,19.75
2022-09-24T04:04:02.304Z,19.78
2022-09-24T04:06:29.253Z,19.85
2022-09-24T04:08:56.614Z,19.83
2022-09-24T04:11:24.789Z,19.79
2022-09-24T04:13:52.212Z,19.81
2022-09-24T04:16:19.317Z,19.71
2022-09-24T04:18:48.001Z,19.78
2022-09-24T04:21:14.954Z,19.71
2022-09-24T04:23:41.917Z,19.80
2022-09-24T04:26:09.350Z,20.04
2022-09-24T04:28:36.366Z,19.93
2022-09-24T04:31:03.371Z,19.68
2022-09-24T04:33:30.383Z,19.67
2022-09-24T04:35:57.317Z,19.83
2022-09-24T04:38:24.233Z,19.98
2022-09-24T04:40:51.177Z,19.80
2022-09-24T04:43:19.370Z,19.69
2022-09-24T04:45:46.998Z,19.77
2022-09-24T04:48:14.302Z,19.72
2022-09-24T04:50:45.816Z,19.53
2022-09-24T04:53:13.486Z,19.87
2022-09-24T04:55:41.608Z,19.69
2022-09-24T04:58:09.422Z,19.75
2022-09-24T05:00:36.690Z,20.23
2022-09-24T05:03:03.868Z,19.62
2022-09-24T05:05:32.750Z,19.62
2022-09-24T05:08:01.396Z,19.72
2022-09-24T05:10:31.480Z,19.70
2022-09-24T05:12:58.482Z,19.59
2022-09-24T05:15:25.456Z,19.54
2022-09-24T05:17:52.399Z,19.62
2022-09-24T05:20:19.423Z,19.73
2022-09-24T05:22:49.497Z,19.78
2022-09-24T05:25:18.998Z,19.57
2022-09-24T05:27:54.503Z,19.75
2022-09-24T05:30:24.740Z,19.66
2022-09-24T05:32:52.466Z,19.61
2022-09-24T05:35:22.956Z,19.70
2022-09-24T05:37:53.100Z,19.70
2022-09-24T05:40:38.377Z,19.70
2022-09-24T05:43:05.564Z,19.40
2022-09-24T05:45:32.784Z,19.65
2022-09-24T05:48:02.760Z,19.68
2022-09-24T05:50:29.633Z,19.68
2022-09-24T05:52:57.115Z,19.76
2022-09-24T05:55:26.675Z,19.85
2022-09-24T05:57:55.759Z,19.73
2022-09-24T06:00:22.751Z,19.68
2022-09-24T06:02:50.801Z,19.72
2022-09-24T06:05:17.734Z,19.87
2022-09-24T06:07:44.617Z,19.24
2022-09-24T06:10:11.743Z,19.42
2022-09-24T06:12:38.644Z,19.35
2022-09-24T06:15:06.173Z,19.39
2022-09-24T06:17:33.046Z,19.18
2022-09-24T06:19:59.924Z,19.14
2022-09-24T06:22:29.032Z,19.22
2022-09-24T06:24:56.160Z,19.71
2022-09-24T06:27:23.073Z,19.63
2022-09-24T06:29:50.240Z,19.91
2022-09-24T06:32:19.634Z,19.98
2022-09-24T06:34:51.652Z,19.97
2022-09-24T06:37:20.304Z,19.94
2022-09-24T06:39:47.401Z,19.90
2022-09-24T06:42:14.409Z,19.57
2022-09-24T06:44:42.276Z,19.66
2022-09-24T06:47:09.199Z,19.70
2022-09-24T06:49:36.663Z,19.60
2022-09-24T06:52:04.440Z,20.05
2022-09-24T06:54:31.402Z,19.83
2022-09-24T06:56:58.450Z,19.93
2022-09-24T06:59:26.178Z,19.89
2022-09-24T07:01:53.330Z,19.71
2022-09-24T07:04:20.399Z,19.86
2022-09-24T07:07:06.198Z,19.64
2022-09-24T07:09:33.307Z,19.45
2022-09-24T07:12:04.727Z,19.51
2022-09-24T07:14:31.601Z,19.46
2022-09-24T07:16:58.603Z,19.53
2022-09-24T07:19:25.485Z,20.06
2022-09-24T07:21:52.410Z,19.84
2022-09-24T07:24:19.465Z,19.95
2022-09-24T07:26:46.744Z,19.92
2022-09-24T07:29:13.622Z,20.12
2022-09-24T07:31:40.667Z,20.12
2022-09-24T07:34:09.036Z,20.21
2022-09-24T07:36:36.365Z,20.21
2022-09-24T07:39:05.278Z,20.10
2022-09-24T07:41:33.027Z,19.87
2022-09-24T07:44:00.695Z,20.06
2022-09-24T07:46:27.903Z,19.83
2022-09-24T07:48:56.309Z,19.93
2022-09-24T07:51:28.513Z,19.89
2022-09-24T07:53:56.752Z,19.89
2022-09-24T07:56:25.139Z,19.86
2022-09-24T07:58:53.212Z,20.01
2022-09-24T08:01:21.100Z,19.91
2022-09-24T08:03:48.646Z,19.79
2022-09-24T08:06:16.037Z,19.85
2022-09-24T08:08:43.504Z,19.98
2022-09-24T08:11:13.541Z,20.19
2022-09-24T08:13:40.746Z,20.52
2022-09-24T08:16:08.382Z,20.44
2022-09-24T08:18:35.702Z,20.31
2022-09-24T08:21:09.541Z,20.00
2022-09-24T08:23:40.226Z,20.10
2022-09-24T08:26:08.408Z,20.19
2022-09-24T08:28:35.951Z,19.94
2022-09-24T08:31:09.167Z,20.21
2022-09-24T08:33:37.771Z,20.47
2022-09-24T08:36:09.170Z,20.18
2022-09-24T08:38:36.474Z,20.51
2022-09-24T08:41:12.651Z,20.69
2022-09-24T08:44:05.853Z,20.93
2022-09-24T08:47:11.893Z,21.24
2022-09-24T08:49:45.542Z,21.28
2022-09-24T08:52:37.381Z,21.52
2022-09-24T08:55:14.391Z,21.23
2022-09-24T08:57:56.167Z,21.57
2022-09-24T09:00:24.112Z,21.09
2022-09-24T09:03:14.797Z,21.22
2022-09-24T09:06:04.323Z,22.02
2022-09-24T09:09:07.908Z,22.22
2022-09-24T09:11:37.951Z,22.00
2022-09-24T09:14:17.698Z,21.74
2022-09-24T09:16:56.980Z,22.08
2022-09-24T09:19:30.888Z,21.65
2022-09-24T09:22:06.003Z,21.26
2022-09-24T09:24:49.884Z,21.68
2022-09-24T09:27:19.973Z,21.19
2022-09-24T09:29:57.481Z,21.78
2022-09-24T09:33:06.179Z,22.50
2022-09-24T09:36:03.404Z,22.14
2022-09-24T09:39:06.853Z,21.14
2022-09-24T09:41:47.522Z,21.51
2022-09-24T09:44:28.194Z,21.39
2022-09-24T09:47:25.533Z,21.12
2022-09-24T09:49:58.560Z,20.90
2022-09-24T09:52:29.443Z,21.79
2022-09-24T09:54:56.730Z,21.78
2022-09-24T09:57:26.009Z,22.20
2022-09-24T09:59:55.402Z,21.80
2022-09-24T10:02:31.758Z,22.53
2022-09-24T10:05:01.651Z,23.02
2022-09-24T10:07:28.751Z,22.72
2022-09-24T10:10:25.848Z,22.01
2022-09-24T10:13:13.856Z,22.51
2022-09-24T10:16:00.540Z,22.80
2022-09-24T10:18:36.077Z,21.82
2022-09-24T10:21:10.037Z,22.36
2022-09-24T10:23:43.229Z,22.16
2022-09-24T10:26:11.099Z,22.50
2022-09-24T10:29:04.689Z,22.41
2022-09-24T10:31:35.765Z,22.80
2022-09-24T10:34:05.273Z,22.53
2022-09-24T10:36:32.865Z,21.94
2022-09-24T10:39:14.398Z,22.13
2022-09-24T10:41:48.964Z,21.83
2022-09-24T10:44:17.086Z,21.71
2022-09-24T10:47:40.503Z,21.79
2022-09-24T10:51:16.623Z,21.97
2022-09-24T10:53:57.460Z,22.22
2022-09-24T10:56:46.592Z,22.21
2022-09-24T10:59:26.082Z,22.26
2022-09-24T11:02:13.450Z,21.61
2022-09-24T11:04:58.728Z,21.84
2022-09-24T11:07:55.124Z,22.45
2022-09-24T11:10:51.408Z,22.63
2022-09-24T11:13:49.140Z,22.65
2022-09-24T11:16:51.881Z,22.62
2022-09-24T11:19:46.510Z,22.74
2022-09-24T11:22:52.558Z,22.43
2022-09-24T11:26:01.745Z,22.80
2022-09-24T11:29:07.782Z,22.91
2022-09-24T11:31:58.094Z,23.18
2022-09-24T11:35:13.987Z,23.13
2022-09-24T11:38:15.366Z,22.95
2022-09-24T11:41:21.498Z,22.68
2022-09-24T11:44:17.476Z,22.62
2022-09-24T11:47:02.393Z,22.76
2022-09-24T11:50:01.829Z,23.42
2022-09-24T11:52:40.431Z,22.85
2022-09-24T11:55:42.466Z,23.46
2022-09-24T11:58:31.314Z,22.41
2022-09-24T12:01:09.946Z,22.90
2022-09-24T12:04:13.939Z,23.07
2022-09-24T12:07:04.025Z,23.05
2022-09-24T12:09:56.974Z,23.37
2022-09-24T12:12:31.979Z,22.82
2022-09-24T12:15:03.938Z,22.77
2022-09-24T12:17:36.904Z,22.24
2022-09-24T12:20:21.834Z,22.89
2022-09-24T12:22:55.887Z,23.50
2022-09-24T12:25:22.848Z,23.33
2022-09-24T12:27:50.212Z,23.04
2022-09-24T12:30:58.797Z,22.57
2022-09-24T12:33:45.684Z,23.33
2022-09-24T12:36:38.255Z,23.55
2022-09-24T12:39:13.151Z,23.85
2022-09-24T12:41:45.351Z,23.03
2022-09-24T12:44:18.415Z,22.73
2022-09-24T12:46:55.181Z,23.06
2022-09-24T12:49:25.162Z,23.85
2022-09-24T12:51:55.150Z,23.50
2022-09-24T12:54:36.262Z,23.43
2022-09-24T12:57:26.377Z,23.83
2022-09-24T13:00:01.119Z,23.76
2022-09-24T13:02:33.618Z,23.96
2022-09-24T13:05:03.480Z,23.72
2022-09-24T13:07:37.162Z,23.34
2022-09-24T13:10:17.996Z,23.10
2022-09-24T13:12:46.589Z,22.90
2022-09-24T13:15:38.803Z,23.48
2022-09-24T13:18:08.708Z,23.47
2022-09-24T13:20:49.294Z,23.15
2022-09-24T13:23:22.713Z,23.58
2022-09-24T13:26:00.300Z,23.91
2022-09-24T13:28:38.351Z,24.28
2022-09-24T13:31:19.276Z,23.23
2022-09-24T13:33:51.556Z,23.68
2022-09-24T13:36:27.818Z,23.52
2022-09-24T13:39:26.859Z,23.62
2022-09-24T13:42:15.006Z,23.90
2022-09-24T13:45:05.009Z,24.04
2022-09-24T13:47:43.293Z,23.83
2022-09-24T13:50:34.615Z,23.57
2022-09-24T13:53:27.705Z,24.43
2022-09-24T13:55:59.290Z,24.38
2022-09-24T13:58:38.683Z,24.50
2022-09-24T14:01:39.255Z,24.71
2022-09-24T14:04:20.658Z,24.18
2022-09-24T14:06:57.570Z,23.99
2022-09-24T14:09:36.276Z,23.79
2022-09-24T14:12:16.613Z,24.00
2022-09-24T14:14:47.395Z,24.15
2022-09-24T14:17:15.478Z,24.09
2022-09-24T14:19:43.076Z,24.16
2022-09-24T14:22:35.322Z,24.38
2022-09-24T14:25:33.433Z,24.82
2022-09-24T14:28:01.981Z,24.50
2022-09-24T14:30:32.492Z,24.60
2022-09-24T14:33:13.721Z,24.82
2022-09-24T14:35:46.591Z,24.09
2022-09-24T14:38:44.837Z,24.00
2022-09-24T14:41:21.624Z,23.88
2022-09-24T14:43:56.230Z,23.07
2022-09-24T14:46:31.807Z,23.91
2022-09-24T14:49:17.547Z,23.66
2022-09-24T14:51:56.196Z,23.79
2022-09-24T14:54:40.463Z,24.43
2022-09-24T14:57:17.760Z,24.91
2022-09-24T14:59:46.670Z,23.98
2022-09-24T15:02:28.923Z,23.95
2022-09-24T15:05:04.978Z,24.37
2022-09-24T15:07:35.049Z,24.45
2022-09-24T15:10:05.492Z,24.67
2022-09-24T15:12:35.836Z,24.62
2022-09-24T15:15:30.680Z,24.98
2022-09-24T15:17:58.189Z,24.66
2022-09-24T15:20:25.120Z,24.43
2022-09-24T15:22:52.113Z,24.18
2022-09-24T15:25:19.126Z,24.53
2022-09-24T15:27:46.217Z,24.08
2022-09-24T15:30:20.348Z,24.57
2022-09-24T15:32:50.186Z,24.06
2022-09-24T15:35:17.652Z,24.11
2022-09-24T15:37:45.119Z,23.59
2022-09-24T15:40:22.673Z,24.19
2022-09-24T15:42:51.033Z,24.72
2022-09-24T15:45:23.938Z,24.47
2022-09-24T15:47:52.447Z,24.48
2022-09-24T15:50:21.598Z,24.66
2022-09-24T15:52:57.160Z,23.90
2022-09-24T15:55:24.343Z,24.62
2022-09-24T15:57:51.808Z,24.32
2022-09-24T16:00:23.125Z,24.08
2022-09-24T16:02:54.329Z,24.14
2022-09-24T16:05:21.886Z,24.54
2022-09-24T16:07:49.327Z,24.45
2022-09-24T16:10:16.936Z,24.39
2022-09-24T16:12:44.004Z,24.38
2022-09-24T16:15:16.040Z,24.82
2022-09-24T16:17:43.149Z,24.01
2022-09-24T16:20:11.156Z,23.69
2022-09-24T16:22:38.442Z,24.47
2022-09-24T16:25:06.069Z,24.58
2022-09-24T16:27:35.270Z,24.11
2022-09-24T16:30:02.955Z,24.39
2022-09-24T16:32:29.918Z,24.13
2022-09-24T16:34:56.962Z,24.32
2022-09-24T16:37:24.955Z,23.89
2022-09-24T16:39:56.110Z,24.10
2022-09-24T16:42:26.212Z,23.57
2022-09-24T16:44:53.186Z,23.91
2022-09-24T16:47:20.661Z,23.72
2022-09-24T16:49:48.236Z,24.31
2022-09-24T16:52:15.130Z,24.18
2022-09-24T16:54:42.182Z,24.27
2022-09-24T16:57:09.184Z,23.87
2022-09-24T16:59:36.275Z,24.32
2022-09-24T17:02:03.827Z,24.03
2022-09-24T17:04:30.882Z,24.20
2022-09-24T17:06:58.275Z,23.99
2022-09-24T17:09:44.172Z,24.12
2022-09-24T17:12:11.167Z,23.62
2022-09-24T17:14:38.702Z,23.77
2022-09-24T17:17:06.696Z,23.66
2022-09-24T17:19:33.571Z,23.73
2022-09-24T17:22:00.543Z,23.70
2022-09-24T17:24:27.678Z,23.55
2022-09-24T17:26:56.495Z,23.08
2022-09-24T17:29:28.987Z,23.39
2022-09-24T17:31:58.444Z,23.47
2022-09-24T17:34:25.928Z,23.39
2022-09-24T17:36:55.307Z,23.60
2022-09-24T17:39:22.414Z,23.84
2022-09-24T17:41:49.354Z,23.79
2022-09-24T17:44:19.441Z,23.96
2022-09-24T17:46:46.575Z,23.88
2022-09-24T17:49:13.743Z,23.35
2022-09-24T17:51:40.676Z,23.03
2022-09-24T17:54:18.861Z,23.44
2022-09-24T17:56:45.840Z,23.10
2022-09-24T17:59:14.288Z,22.49
2022-09-24T18:01:43.577Z,23.10
2022-09-24T18:04:18.211Z,23.15
2022-09-24T18:06:46.690Z,23.07
2022-09-24T18:09:15.466Z,23.16
2022-09-24T18:11:49.097Z,23.13
2022-09-24T18:14:19.891Z,22.90
2022-09-24T18:16:47.897Z,24.31
2022-09-24T18:19:17.236Z,24.04
2022-09-24T18:21:45.480Z,23.35
2022-09-24T18:24:12.688Z,22.77
2022-09-24T18:26:40.380Z,22.92
2022-09-24T18:29:16.455Z,23.41
2022-09-24T18:31:44.024Z,23.08
2022-09-24T18:34:14.772Z,23.23
2022-09-24T18:36:43.939Z,23.13
2022-09-24T18:39:17.627Z,23.07
2022-09-24T18:41:47.313Z,23.19
2022-09-24T18:44:14.277Z,23.44
2022-09-24T18:46:41.960Z,23.68
2022-09-24T18:49:11.288Z,23.88
2022-09-24T18:51:38.624Z,23.69
2022-09-24T18:54:18.056Z,23.97
2022-09-24T18:56:45.971Z,23.53
2022-09-24T18:59:17.539Z,23.40
2022-09-24T19:01:45.529Z,23.65
2022-09-24T19:04:14.163Z,23.25
2022-09-24T19:06:44.677Z,23.01
2022-09-24T19:09:17.139Z,22.76
2022-09-24T19:11:45.456Z,23.09
2022-09-24T19:14:14.903Z,23.03
2022-09-24T19:16:41.810Z,23.00
2022-09-24T19:19:11.133Z,23.26
2022-09-24T19:21:39.052Z,23.26
2022-09-24T19:24:06.852Z,23.33
2022-09-24T19:26:36.329Z,23.35
2022-09-24T19:29:05.226Z,23.39
2022-09-24T19:31:38.514Z,24.57
2022-09-24T19:34:08.152Z,23.36
2022-09-24T19:36:43.636Z,23.51
2022-09-24T19:39:18.437Z,23.33
2022-09-24T19:41:45.759Z,23.18
2022-09-24T19:44:13.502Z,23.18
2022-09-24T19:46:41.551Z,23.10
2022-09-24T19:49:09.338Z,23.03
2022-09-24T19:51:36.977Z,23.67
2022-09-24T19:54:07.025Z,23.56
2022-09-24T19:56:35.343Z,23.23
2022-09-24T19:59:03.135Z,23.10
2022-09-24T20:01:32.423Z,23.09
2022-09-24T20:04:04.017Z,23.02
2022-09-24T20:06:33.792Z,22.95
2022-09-24T20:09:01.154Z,22.83
2022-09-24T20:11:29.326Z,22.79
2022-09-24T20:13:56.816Z,22.89
2022-09-24T20:16:26.881Z,23.00
2022-09-24T20:18:57.704Z,23.22
2022-09-24T20:21:34.824Z,22.97
2022-09-24T20:24:03.586Z,22.94
2022-09-24T20:26:49.735Z,24.02
2022-09-24T20:29:19.593Z,22.92
2022-09-24T20:31:52.840Z,23.12
2022-09-24T20:34:31.657Z,23.16
2022-09-24T20:37:01.291Z,22.91
2022-09-24T20:39:29.332Z,22.92
2022-09-24T20:41:59.867Z,22.59
2022-09-24T20:44:26.852Z,22.53
2022-09-24T20:46:53.765Z,22.31
2022-09-24T20:49:23.014Z,22.36
2022-09-24T20:51:56.195Z,22.80
2022-09-24T20:54:25.864Z,22.82
2022-09-24T20:56:52.803Z,22.85
2022-09-24T20:59:19.904Z,24.70
2022-09-24T21:01:48.120Z,24.79
2022-09-24T21:04:15.127Z,24.78
2022-09-24T21:06:42.160Z,23.15
2022-09-24T21:09:13.386Z,24.83
2022-09-24T21:11:41.818Z,24.56
2022-09-24T21:14:11.430Z,24.70
2022-09-24T21:16:39.848Z,23.64
2022-09-24T21:19:07.930Z,23.57
2022-09-24T21:21:38.305Z,24.33
2022-09-24T21:24:09.772Z,24.55
2022-09-24T21:26:39.126Z,24.76
2022-09-24T21:29:16.917Z,24.82
2022-09-24T21:31:46.102Z,23.48
2022-09-24T21:34:16.196Z,22.86
2022-09-24T21:36:47.888Z,22.77
2022-09-24T21:39:23.699Z,23.10
2022-09-24T21:41:52.977Z,22.84
2022-09-24T21:44:20.205Z,23.18
2022-09-24T21:46:49.211Z,24.63
2022-09-24T21:49:17.165Z,24.73
2022-09-24T21:51:45.482Z,24.94
2022-09-24T21:54:17.975Z,25.13
2022-09-24T21:56:46.357Z,24.91
2022-09-24T21:59:32.824Z,24.63
2022-09-24T22:02:00.239Z,24.16
2022-09-24T22:04:27.826Z,24.62
2022-09-24T22:06:54.710Z,24.72
2022-09-24T22:09:22.285Z,24.82
2022-09-24T22:11:49.305Z,23.58
2022-09-24T22:14:16.754Z,24.35
2022-09-24T22:16:43.842Z,24.79
2022-09-24T22:19:10.783Z,23.76
2022-09-24T22:21:37.880Z,23.03
2022-09-24T22:24:05.844Z,24.02
2022-09-24T22:26:33.206Z,23.28
2022-09-24T22:29:00.887Z,23.15
2022-09-24T22:31:28.203Z,23.98
2022-09-24T22:34:13.959Z,23.18
2022-09-24T22:36:41.057Z,24.21
2022-09-24T22:39:08.836Z,24.32
2022-09-24T22:41:42.940Z,24.14
2022-09-24T22:44:11.846Z,24.13
2022-09-24T22:46:39.554Z,23.83
2022-09-24T22:49:06.752Z,24.09
2022-09-24T22:51:34.170Z,24.05
2022-09-24T22:54:01.318Z,23.99
2022-09-24T22:56:29.931Z,23.94
2022-09-24T22:58:59.797Z,23.91
2022-09-24T23:01:31.269Z,23.80
2022-09-24T23:03:59.774Z,23.56
2022-09-24T23:06:27.575Z,23.22
2022-09-24T23:08:55.313Z,23.63
2022-09-24T23:11:34.290Z,23.97
2022-09-24T23:14:04.953Z,24.04
2022-09-24T23:16:35.744Z,24.11
2022-09-24T23:19:06.140Z,24.24
2022-09-24T23:21:34.186Z,23.54
2022-09-24T23:24:08.171Z,23.87
2022-09-24T23:26:35.162Z,23.43
2022-09-24T23:29:02.229Z,23.46
2022-09-24T23:31:33.036Z,23.94
2022-09-24T23:34:01.273Z,24.04
2022-09-24T23:36:31.110Z,23.72
2022-09-24T23:38:59.725Z,23.55
2022-09-24T23:41:28.206Z,23.83
2022-09-24T23:43:55.250Z,23.83
2022-09-24T23:46:22.300Z,23.79
2022-09-24T23:48:49.221Z,23.87
2022-09-24T23:51:16.127Z,23.78
2022-09-24T23:53:43.055Z,23.94
2022-09-24T23:56:11.356Z,23.85
2022-09-24T23:58:38.258Z,22.63
